Main page
METAR-TAF:

METAR-TAF

Airports :

Clearwater Air Park

Clearwater, Florida, United States

latitude: 27-58-36N, longitude: 082-45-31W, elevation: 72 ft

Current weather observation

The report was made 1 hour and 28 minutes ago, at 05:15 UTC
Wind 10 mph from the East/Southeast with gusts up to 16 mph, varying between East and South/Southeast
Temperature 73°F
Humidity 65%
Pressure 30.12 in. Hg
Visibility: 10 miles
Clear sky

METAR: KCLW 180515Z AUTO 11009G14KT 090V150 10SM CLR 23/16 A3012 RMK AO2

Time: 02:43 (06:43 UTC)


TAF: missing

Weather observations and forecasts of more than 4000 airports (METAR and TAF reports).

The available stations are represented by yellow and red dots on the map.

Hover mouse over dot to see the name of the station.

Then click to see weather observations and forecasts.

To change the map : click on the green buttons with a black cross to zoom in, on the green button with a dash to zoom out, or on the green arrows for adjacent maps.


METAR-TAF: